Skip Navigation Links Skip Navigation Links

Current Weather

Allaire, Belmar/Farmingdale, N.J.

For information only: do not use for flight planning or navigation.
Latest weather
Observation time Thursday, November 14, 2019 7:56 PM EST
Local time Thursday, November 14, 2019 8:12 PM EST
Flight conditions Visual Meteorological Conditions
Winds
Wind direction Southwest (220°)
Wind speed 5 mph
Visibility 10 mi.
Sky condition
Ceiling unlimited
Sky clear
Temperature 39°F
Dewpoint 28°F
Altimeter 30.31 in.Hg
Derived measurements
Relative humidity 64%
Wind chill 36°F
Density altitude -1551 ft.
Sea-level pressure 30.32 in.Hg
Remarks
Fully automated report.
Automated weather observing station with precipitation discriminator.
METAR KBLM 150056Z AUTO 22004KT 10SM CLR 04/M02 A3031 RMK AO2 SLP267 T00391022

Settings

Location code

InnerDrive.Weather 4.0.6770.0 Release CLR 4.0.30319.42000
Copyright ©2018 Inner Drive Technology. All rights reserved. Portions Copyright ©1986-2018 David Braverman.

Find weather

Site navigation


Skip Navigation Links

Place info

Page info

PayPal - The safer, easier way to pay online!

Return home.

Copyright ©2019 Inner Drive Technology. Purveyors of fine, hand-crafted computer software. Page printed 2019-11-15T01:12:03 UTC.